Time;durP1;ratioP1;P1;durP2;ratioP2;P2;SDS_P1;SDS_P2;PMS_P1;PMS_P2;Temp;Humidity;BMP_temperature;BMP_pressure;BME280_temperature;BME280_humidity;BME280_pressure;Samples;Min_cycle;Max_cycle;Signal;HPM_P1;HPM_P2
2024/02/28 00:02:13;;;;;;;;;;;;;;;30.52;21.92;98053.78;5091701;28;19920;-81
2024/02/28 00:04:40;;;;;;;;;;;;;;;30.64;21.63;98053.53;5092985;28;19959;-81
2024/02/28 00:07:06;;;;;;;;;;;;;;;30.74;21.78;98046.56;5092076;28;19921;-81
2024/02/28 00:09:32;;;;;;;;;;;;;;;30.44;22.12;98052.53;5094101;28;19928;-81
2024/02/28 00:11:58;;;;;;;;;;;;;;;30.66;21.70;98048.22;5094676;28;19920;-81
2024/02/28 00:14:24;;;;;;;;;;;;;;;30.73;21.69;98052.72;5094915;28;19974;-81
2024/02/28 00:16:50;;;;;;;;;;;;;;;30.76;21.66;98054.59;5094542;28;19927;-81
2024/02/28 00:19:18;;;;;;;;;;;;;;;30.68;21.45;98059.84;5093284;28;19920;-81
2024/02/28 00:21:44;;;;;;;;;;;;;;;30.66;21.67;98058.75;5091241;28;20443;-81
2024/02/28 00:24:10;;;;;;;;;;;;;;;30.59;21.68;98053.44;5091714;28;19954;-81
2024/02/28 00:26:37;;;;;;;;;;;;;;;30.21;22.35;98064.56;5091540;28;19924;-81
2024/02/28 00:29:03;;;;;;;;;;;;;;;30.54;21.77;98060.53;5093646;28;19935;-81
2024/02/28 00:31:29;;;;;;;;;;;;;;;30.69;21.76;98061.41;5093351;28;19959;-81
2024/02/28 00:33:55;;;;;;;;;;;;;;;30.81;21.37;98061.69;5091706;28;19926;-81
2024/02/28 00:36:21;;;;;;;;;;;;;;;30.73;21.31;98059.19;5090334;28;20020;-81
2024/02/28 00:38:47;;;;;;;;;;;;;;;30.93;21.32;98057.84;5091886;28;19920;-81
2024/02/28 00:41:13;;;;;;;;;;;;;;;31.06;21.25;98061.25;5093284;28;19920;-81
2024/02/28 00:43:40;;;;;;;;;;;;;;;31.06;21.06;98064.06;5093402;28;19920;-81
2024/02/28 00:46:11;;;;;;;;;;;;;;;30.84;21.60;98057.84;5092086;28;20307;-81
2024/02/28 00:48:37;;;;;;;;;;;;;;;30.23;22.48;98064.84;5093682;28;19970;-81
2024/02/28 00:51:04;;;;;;;;;;;;;;;29.67;22.83;98060.53;5092187;28;19920;-81
2024/02/28 00:53:30;;;;;;;;;;;;;;;29.82;22.36;98061.50;5093251;28;20286;-81
2024/02/28 00:55:56;;;;;;;;;;;;;;;29.41;23.11;98062.09;5093569;28;20019;-80
2024/02/28 00:58:22;;;;;;;;;;;;;;;29.22;23.15;98063.38;5092953;28;19971;-80
2024/02/28 01:00:48;;;;;;;;;;;;;;;29.64;22.54;98069.97;5091114;28;19932;-81
2024/02/28 01:03:15;;;;;;;;;;;;;;;30.14;22.21;98074.16;5091505;28;19916;-81
2024/02/28 01:05:41;;;;;;;;;;;;;;;30.46;21.70;98070.63;5090966;28;19928;-81
2024/02/28 01:08:07;;;;;;;;;;;;;;;30.77;21.36;98068.31;5090500;28;19920;-81
2024/02/28 01:10:34;;;;;;;;;;;;;;;30.84;21.31;98070.00;5093222;28;19920;-81
2024/02/28 01:16:03;;;;;;;;;;;;;;;30.46;21.85;98075.50;5090506;28;19927;-81
2024/02/28 01:18:30;;;;;;;;;;;;;;;30.59;21.46;98070.44;5089288;28;19934;-81
2024/02/28 01:20:56;;;;;;;;;;;;;;;30.50;21.53;98078.97;5091866;28;20428;-81
2024/02/28 01:23:22;;;;;;;;;;;;;;;30.60;21.60;98081.28;5091763;28;19932;-81
2024/02/28 01:25:48;;;;;;;;;;;;;;;30.85;21.53;98080.09;5091680;28;20306;-81
2024/02/28 01:28:14;;;;;;;;;;;;;;;30.11;22.34;98080.78;5092866;28;20046;-81
2024/02/28 01:30:40;;;;;;;;;;;;;;;29.57;23.20;98078.00;5090764;28;19920;-81
2024/02/28 01:33:06;;;;;;;;;;;;;;;29.50;22.87;98076.25;5091179;28;19946;-81
2024/02/28 01:35:32;;;;;;;;;;;;;;;29.84;22.95;98087.28;5091518;28;19920;-81
2024/02/28 01:37:59;;;;;;;;;;;;;;;30.07;22.63;98080.16;5090795;28;19923;-81
2024/02/28 01:40:24;;;;;;;;;;;;;;;29.61;23.16;98070.91;5090689;28;19920;-81
2024/02/28 01:42:50;;;;;;;;;;;;;;;29.29;23.71;98060.22;5092605;28;19928;-81
2024/02/28 01:45:16;;;;;;;;;;;;;;;29.73;23.17;98069.19;5090605;28;19956;-81
2024/02/28 01:47:42;;;;;;;;;;;;;;;29.96;23.08;98088.38;5088434;28;19920;-81
2024/02/28 01:50:12;;;;;;;;;;;;;;;30.24;22.77;98078.56;5089619;28;19924;-81
2024/02/28 01:52:38;;;;;;;;;;;;;;;30.35;22.44;98086.56;5091078;28;20018;-81
2024/02/28 01:55:06;;;;;;;;;;;;;;;29.36;23.70;98066.34;5094336;28;19924;-81
2024/02/28 01:57:32;;;;;;;;;;;;;;;28.93;24.25;98069.41;5091355;28;20310;-81
2024/02/28 01:59:59;;;;;;;;;;;;;;;29.27;23.58;98069.16;5091490;28;19924;-81
2024/02/28 02:02:25;;;;;;;;;;;;;;;29.67;23.32;98066.19;5089844;28;20490;-81
2024/02/28 02:04:52;;;;;;;;;;;;;;;29.30;24.07;98065.41;5089463;28;20379;-80
2024/02/28 02:07:19;;;;;;;;;;;;;;;28.80;24.54;98057.41;5089966;28;20368;-80
2024/02/28 02:09:46;;;;;;;;;;;;;;;28.95;24.11;98055.59;5090446;28;19922;-80
2024/02/28 02:12:12;;;;;;;;;;;;;;;28.70;24.40;98061.50;5091278;28;19924;-80
2024/02/28 02:14:38;;;;;;;;;;;;;;;28.96;24.27;98067.69;5087589;28;19928;-81
2024/02/28 02:17:04;;;;;;;;;;;;;;;29.31;23.78;98071.84;5089943;28;19920;-81
2024/02/28 02:19:30;;;;;;;;;;;;;;;29.57;23.58;98072.34;5099223;28;19927;-80
2024/02/28 02:21:57;;;;;;;;;;;;;;;29.32;23.82;98076.25;5091491;28;19924;-81
2024/02/28 02:24:23;;;;;;;;;;;;;;;28.89;24.60;98071.59;5089091;28;19919;-80
2024/02/28 02:26:54;;;;;;;;;;;;;;;29.29;23.82;98075.13;5087862;28;20442;-80
2024/02/28 02:29:20;;;;;;;;;;;;;;;29.48;23.43;98073.09;5090909;28;19951;-80
2024/02/28 02:31:46;;;;;;;;;;;;;;;29.72;23.00;98064.78;5090371;28;20359;-80
2024/02/28 02:34:12;;;;;;;;;;;;;;;30.01;22.65;98063.00;5089963;28;19924;-80
2024/02/28 02:36:38;;;;;;;;;;;;;;;30.28;22.38;98064.22;5089221;28;19928;-80
2024/02/28 02:39:04;;;;;;;;;;;;;;;30.26;22.48;98056.19;5087179;28;19927;-80
2024/02/28 02:41:30;;;;;;;;;;;;;;;29.90;22.80;98065.56;5089830;28;21149;-81
2024/02/28 02:43:57;;;;;;;;;;;;;;;29.47;23.35;98060.22;5086705;28;19943;-80
2024/02/28 02:46:23;;;;;;;;;;;;;;;29.19;23.96;98053.78;5088108;28;19932;-81
2024/02/28 02:48:49;;;;;;;;;;;;;;;28.88;24.44;98055.88;5090404;28;19954;-81
2024/02/28 02:51:17;;;;;;;;;;;;;;;29.29;24.15;98057.41;5088628;28;21107;-80
2024/02/28 02:53:43;;;;;;;;;;;;;;;29.53;23.88;98054.72;5087607;28;19920;-81
2024/02/28 02:56:09;;;;;;;;;;;;;;;29.29;23.72;98057.41;5085193;28;19930;-81
2024/02/28 02:58:35;;;;;;;;;;;;;;;29.50;23.50;98064.94;5091356;28;19920;-81
2024/02/28 03:01:01;;;;;;;;;;;;;;;29.87;23.10;98063.66;5090052;28;19935;-81
2024/02/28 03:03:27;;;;;;;;;;;;;;;30.12;22.91;98064.56;5091031;28;19916;-81
2024/02/28 03:05:53;;;;;;;;;;;;;;;30.04;23.05;98061.28;5090843;28;20394;-80
2024/02/28 03:08:19;;;;;;;;;;;;;;;30.13;22.75;98069.75;5090557;28;20261;-80
2024/02/28 03:10:45;;;;;;;;;;;;;;;30.14;22.88;98059.22;5090447;28;20427;-81
2024/02/28 03:13:11;;;;;;;;;;;;;;;30.24;22.50;98061.56;5089708;28;19970;-81
2024/02/28 03:15:37;;;;;;;;;;;;;;;30.02;22.79;98069.47;5089554;28;20307;-80
2024/02/28 03:18:04;;;;;;;;;;;;;;;30.22;22.71;98060.47;5092741;28;19920;-81
2024/02/28 03:20:30;;;;;;;;;;;;;;;30.35;22.64;98072.41;5092064;28;19921;-81
2024/02/28 03:22:56;;;;;;;;;;;;;;;30.48;22.21;98065.28;5091425;28;20014;-81
2024/02/28 03:25:22;;;;;;;;;;;;;;;30.42;22.48;98080.56;5092468;28;19928;-80
2024/02/28 03:27:48;;;;;;;;;;;;;;;29.90;23.01;98073.25;5092741;28;19949;-81
2024/02/28 03:30:14;;;;;;;;;;;;;;;29.75;22.93;98077.97;5092193;28;19927;-81
2024/02/28 03:32:40;;;;;;;;;;;;;;;29.60;23.40;98079.88;5093547;28;20011;-81
2024/02/28 03:35:08;;;;;;;;;;;;;;;29.95;22.85;98087.59;5089630;28;19961;-81
2024/02/28 03:37:34;;;;;;;;;;;;;;;30.14;22.42;98081.88;5096510;28;19920;-80
2024/02/28 03:40:00;;;;;;;;;;;;;;;30.05;22.62;98083.47;5095187;28;19928;-80
2024/02/28 03:42:26;;;;;;;;;;;;;;;29.34;23.39;98087.88;5094264;28;19973;-80
2024/02/28 03:44:52;;;;;;;;;;;;;;;29.15;23.68;98086.25;5091855;28;19928;-81
2024/02/28 03:47:18;;;;;;;;;;;;;;;29.08;23.63;98083.72;5094539;28;20007;-81
2024/02/28 03:49:44;;;;;;;;;;;;;;;28.19;24.81;98085.72;5094079;28;19928;-81
2024/02/28 03:52:10;;;;;;;;;;;;;;;28.79;24.13;98086.94;5093761;28;20287;-81
2024/02/28 03:54:36;;;;;;;;;;;;;;;29.58;23.26;98091.66;5093964;28;19927;-81
2024/02/28 03:57:02;;;;;;;;;;;;;;;29.66;23.06;98097.81;5091106;28;19928;-81
2024/02/28 03:59:29;;;;;;;;;;;;;;;29.54;23.13;98084.59;5094491;28;20052;-81
2024/02/28 04:01:55;;;;;;;;;;;;;;;29.13;23.73;98092.38;5094425;28;19969;-80
2024/02/28 04:04:21;;;;;;;;;;;;;;;29.42;23.67;98091.97;5093575;28;19920;-80
2024/02/28 04:06:47;;;;;;;;;;;;;;;29.91;22.83;98091.84;5093294;28;19927;-81
2024/02/28 04:09:13;;;;;;;;;;;;;;;29.98;22.76;98091.50;5084282;28;19920;-80
2024/02/28 04:11:39;;;;;;;;;;;;;;;29.48;23.41;98087.25;5093707;28;19920;-80
2024/02/28 04:14:05;;;;;;;;;;;;;;;29.51;23.28;98082.69;5093914;28;20368;-80
2024/02/28 04:16:31;;;;;;;;;;;;;;;29.37;23.58;98081.28;5093962;28;19947;-80
2024/02/28 04:18:57;;;;;;;;;;;;;;;29.52;23.26;98076.59;5094122;28;19920;-80
2024/02/28 04:21:23;;;;;;;;;;;;;;;29.97;23.06;98084.25;5093984;28;20029;-80
2024/02/28 04:23:49;;;;;;;;;;;;;;;30.24;22.65;98094.75;5093349;28;20404;-81
2024/02/28 04:26:15;;;;;;;;;;;;;;;30.42;22.53;98098.38;5090695;28;19927;-81
2024/02/28 04:28:41;;;;;;;;;;;;;;;29.58;23.19;98093.69;5094200;28;20014;-81
2024/02/28 04:31:09;;;;;;;;;;;;;;;29.47;23.37;98090.56;5093757;28;19926;-80
2024/02/28 04:33:35;;;;;;;;;;;;;;;29.38;23.56;98094.94;5091209;28;20433;-81
2024/02/28 04:36:02;;;;;;;;;;;;;;;29.11;24.20;98097.72;5091459;28;20353;-80
2024/02/28 04:38:28;;;;;;;;;;;;;;;29.55;23.53;98103.91;5090878;28;19923;-80
2024/02/28 04:40:54;;;;;;;;;;;;;;;30.01;23.02;98099.81;5090589;28;20444;-80
2024/02/28 04:43:20;;;;;;;;;;;;;;;28.42;24.90;98093.66;5087193;28;19924;-80
2024/02/28 04:45:46;;;;;;;;;;;;;;;27.74;25.86;98103.09;5087819;28;19927;-80
2024/02/28 04:48:12;;;;;;;;;;;;;;;28.45;24.66;98092.75;5092726;28;19931;-80
2024/02/28 04:50:38;;;;;;;;;;;;;;;29.10;23.78;98101.00;5093505;28;20053;-80
2024/02/28 04:53:04;;;;;;;;;;;;;;;29.18;23.78;98094.59;5088940;28;19960;-81
2024/02/28 04:55:30;;;;;;;;;;;;;;;28.84;24.36;98099.69;5093004;28;20403;-81
2024/02/28 04:57:56;;;;;;;;;;;;;;;29.05;23.89;98095.97;5090319;28;19967;-81
2024/02/28 05:00:22;;;;;;;;;;;;;;;29.11;23.71;98097.72;5088876;28;19931;-81
2024/02/28 05:02:48;;;;;;;;;;;;;;;29.19;23.65;98099.03;5092890;28;19920;-81
2024/02/28 05:05:14;;;;;;;;;;;;;;;29.68;22.95;98098.13;5092817;28;20272;-81
2024/02/28 05:07:40;;;;;;;;;;;;;;;29.59;22.92;98104.56;5092236;28;19920;-81
2024/02/28 05:10:06;;;;;;;;;;;;;;;29.38;23.24;98105.50;5087356;28;19927;-82
2024/02/28 05:12:32;;;;;;;;;;;;;;;29.45;23.08;98115.72;5087518;28;19936;-82
2024/02/28 05:14:58;;;;;;;;;;;;;;;29.58;22.94;98113.50;5088235;28;19920;-81
2024/02/28 05:17:24;;;;;;;;;;;;;;;29.39;23.14;98113.50;5092912;28;19927;-81
2024/02/28 05:19:50;;;;;;;;;;;;;;;29.43;23.24;98119.78;5085192;28;19927;-80
2024/02/28 05:22:17;;;;;;;;;;;;;;;29.63;22.91;98127.03;5090946;28;19920;-80
2024/02/28 05:24:45;;;;;;;;;;;;;;;29.58;22.96;98122.00;5086340;28;20383;-81
2024/02/28 05:27:11;;;;;;;;;;;;;;;29.89;22.63;98126.28;5084421;28;20580;-81
2024/02/28 05:29:37;;;;;;;;;;;;;;;29.86;22.55;98120.78;5088571;28;19967;-80
2024/02/28 05:32:03;;;;;;;;;;;;;;;29.90;22.56;98124.22;5087597;28;20010;-81
2024/02/28 05:34:30;;;;;;;;;;;;;;;30.00;22.36;98132.25;5087953;28;20014;-81
2024/02/28 05:36:56;;;;;;;;;;;;;;;30.11;22.21;98133.81;5087077;28;19916;-80
2024/02/28 05:39:22;;;;;;;;;;;;;;;30.28;21.91;98135.03;5082807;28;20447;-81
2024/02/28 05:41:48;;;;;;;;;;;;;;;30.33;21.97;98140.88;5087653;28;19920;-81
2024/02/28 05:44:14;;;;;;;;;;;;;;;30.30;22.23;98147.47;5087743;28;19927;-81
2024/02/28 05:46:40;;;;;;;;;;;;;;;29.68;22.68;98151.88;5081147;28;19962;-81
2024/02/28 05:49:06;;;;;;;;;;;;;;;29.31;23.43;98154.66;5087777;28;19924;-80
2024/02/28 05:51:32;;;;;;;;;;;;;;;28.80;23.92;98138.63;5084919;28;20007;-81
2024/02/28 05:53:58;;;;;;;;;;;;;;;28.84;23.82;98144.91;5085855;28;19970;-82
2024/02/28 05:56:24;;;;;;;;;;;;;;;28.75;23.82;98145.66;5082871;28;20391;-82
2024/02/28 05:58:50;;;;;;;;;;;;;;;28.97;23.72;98149.19;5092552;28;19927;-81
2024/02/28 06:01:17;;;;;;;;;;;;;;;29.37;23.20;98149.16;5092100;28;19920;-82
2024/02/28 06:03:45;;;;;;;;;;;;;;;29.58;22.76;98155.94;5092764;28;19920;-82
2024/02/28 06:06:11;;;;;;;;;;;;;;;29.87;22.60;98150.66;5092983;28;19920;-81
2024/02/28 06:08:38;;;;;;;;;;;;;;;29.80;22.44;98154.56;5092964;28;19965;-81
2024/02/28 06:11:05;;;;;;;;;;;;;;;30.01;22.18;98164.19;5093077;28;20007;-81
2024/02/28 06:13:31;;;;;;;;;;;;;;;30.02;22.16;98160.09;5093258;28;19920;-81
2024/02/28 06:15:57;;;;;;;;;;;;;;;29.86;22.62;98161.19;5092814;28;20384;-81
2024/02/28 06:18:26;;;;;;;;;;;;;;;29.47;22.92;98162.09;5092762;28;19951;-82
2024/02/28 06:20:56;;;;;;;;;;;;;;;29.36;23.11;98165.34;5093459;28;19947;-82
2024/02/28 06:23:22;;;;;;;;;;;;;;;29.25;22.96;98162.19;5092432;28;19920;-82
2024/02/28 06:25:49;;;;;;;;;;;;;;;29.20;23.30;98174.09;5093670;28;19924;-82
2024/02/28 06:28:15;;;;;;;;;;;;;;;29.43;23.08;98158.59;5091394;28;19912;-81
2024/02/28 06:30:46;;;;;;;;;;;;;;;29.42;23.08;98169.16;5077040;28;20021;-82
2024/02/28 06:33:15;;;;;;;;;;;;;;;29.91;22.47;98185.25;5075068;28;20332;-81
2024/02/28 06:35:42;;;;;;;;;;;;;;;30.12;22.47;98187.16;5112489;28;19915;-82
2024/02/28 06:38:08;;;;;;;;;;;;;;;30.14;22.25;98183.84;5100827;28;19948;-82
2024/02/28 06:40:34;;;;;;;;;;;;;;;29.83;22.76;98186.81;5093564;28;19924;-82
2024/02/28 06:43:00;;;;;;;;;;;;;;;29.97;22.55;98189.03;5093166;28;19916;-82
2024/02/28 06:45:27;;;;;;;;;;;;;;;30.09;22.67;98191.72;5093255;28;19955;-82
2024/02/28 06:47:53;;;;;;;;;;;;;;;30.33;22.06;98191.88;5093595;28;19920;-82
2024/02/28 06:50:19;;;;;;;;;;;;;;;30.24;22.38;98189.03;5093086;28;20007;-82
2024/02/28 06:52:45;;;;;;;;;;;;;;;30.00;22.56;98191.72;5093291;28;19916;-82
2024/02/28 06:55:11;;;;;;;;;;;;;;;30.31;22.23;98202.09;5092890;28;19924;-82
2024/02/28 06:57:38;;;;;;;;;;;;;;;30.66;21.87;98204.09;5093733;28;19923;-82
2024/02/28 07:00:05;;;;;;;;;;;;;;;30.73;21.84;98195.28;5093298;28;19916;-82
2024/02/28 07:02:31;;;;;;;;;;;;;;;30.78;21.75;98208.00;5093607;28;19916;-82
2024/02/28 07:04:57;;;;;;;;;;;;;;;30.71;21.61;98203.44;5093114;28;19915;-81
2024/02/28 07:07:23;;;;;;;;;;;;;;;30.68;21.90;98203.63;5093034;28;19917;-82
2024/02/28 07:09:49;;;;;;;;;;;;;;;30.95;21.59;98197.88;5092996;28;19916;-82
2024/02/28 07:12:15;;;;;;;;;;;;;;;30.86;21.71;98205.59;5090758;28;19916;-82
2024/02/28 07:14:41;;;;;;;;;;;;;;;30.61;22.32;98207.56;5074915;28;19917;-82
2024/02/28 07:17:07;;;;;;;;;;;;;;;30.61;23.52;98207.56;5092958;28;19922;-82
2024/02/28 07:19:33;;;;;;;;;;;;;;;30.58;22.84;98207.72;5092890;28;19912;-82
2024/02/28 07:21:59;;;;;;;;;;;;;;;30.64;22.51;98203.78;5093194;28;19969;-82
2024/02/28 07:24:25;;;;;;;;;;;;;;;30.37;23.97;98203.03;5092332;28;19920;-82
2024/02/28 07:26:52;;;;;;;;;;;;;;;30.57;23.85;98203.34;5092679;28;20333;-82
2024/02/28 07:29:18;;;;;;;;;;;;;;;30.67;23.82;98197.16;5090348;28;19916;-82
2024/02/28 07:31:45;;;;;;;;;;;;;;;30.91;23.06;98193.66;5092444;28;19912;-82
2024/02/28 07:34:11;;;;;;;;;;;;;;;30.71;23.24;98197.00;5092634;28;20326;-82
2024/02/28 07:36:37;;;;;;;;;;;;;;;30.60;23.22;98211.66;5094694;28;19920;-82
2024/02/28 07:39:03;;;;;;;;;;;;;;;30.73;23.45;98202.97;5093110;28;20367;-82
2024/02/28 07:41:29;;;;;;;;;;;;;;;30.91;22.78;98199.31;5092633;28;20292;-82
2024/02/28 07:43:55;;;;;;;;;;;;;;;30.73;22.53;98198.09;5092820;28;19923;-82
2024/02/28 07:46:21;;;;;;;;;;;;;;;30.41;23.33;98195.94;5092608;28;19916;-82
2024/02/28 07:48:47;;;;;;;;;;;;;;;30.23;23.09;98198.00;5092698;28;19916;-82
2024/02/28 07:51:15;;;;;;;;;;;;;;;29.94;23.16;98201.31;5092068;28;19964;-82
2024/02/28 07:53:41;;;;;;;;;;;;;;;29.78;23.76;98188.22;5092447;28;20330;-81
2024/02/28 07:56:07;;;;;;;;;;;;;;;29.81;23.03;98195.00;5092407;28;19969;-81
2024/02/28 07:58:33;;;;;;;;;;;;;;;29.70;23.90;98189.00;5092659;28;20371;-81
2024/02/28 08:00:59;;;;;;;;;;;;;;;29.80;23.85;98193.44;5093928;28;19961;-81
2024/02/28 08:03:25;;;;;;;;;;;;;;;30.07;23.20;98196.28;5096375;28;19922;-81
2024/02/28 08:05:51;;;;;;;;;;;;;;;30.60;22.60;98208.81;5096350;28;19970;-81
2024/02/28 08:08:17;;;;;;;;;;;;;;;30.38;22.61;98204.63;5095734;28;19916;-82
2024/02/28 08:10:45;;;;;;;;;;;;;;;30.49;23.13;98200.03;5096118;28;19923;-81
2024/02/28 08:13:11;;;;;;;;;;;;;;;30.47;22.89;98202.56;5095810;28;19924;-81
2024/02/28 08:15:37;;;;;;;;;;;;;;;30.60;22.52;98206.00;5095836;28;19917;-81
2024/02/28 08:18:03;;;;;;;;;;;;;;;30.75;22.75;98211.78;5096015;28;19920;-82
2024/02/28 08:20:29;;;;;;;;;;;;;;;30.77;22.92;98207.22;5096009;28;19916;-81
2024/02/28 08:22:57;;;;;;;;;;;;;;;30.67;22.48;98216.22;5095970;28;19958;-82
2024/02/28 08:25:23;;;;;;;;;;;;;;;30.31;22.48;98213.41;5095458;28;20399;-81
2024/02/28 08:27:49;;;;;;;;;;;;;;;29.77;23.78;98217.81;5093968;28;19989;-82
2024/02/28 08:30:15;;;;;;;;;;;;;;;30.12;23.56;98223.19;5094595;28;20264;-81
2024/02/28 08:32:41;;;;;;;;;;;;;;;30.82;22.54;98224.84;5095740;28;19916;-81
2024/02/28 08:35:08;;;;;;;;;;;;;;;30.53;22.64;98226.16;5095958;28;19916;-82
2024/02/28 08:37:34;;;;;;;;;;;;;;;30.25;22.67;98223.78;5095451;28;19916;-82
2024/02/28 08:40:00;;;;;;;;;;;;;;;30.32;22.41;98226.31;5095364;28;20002;-81
2024/02/28 08:42:26;;;;;;;;;;;;;;;30.01;22.92;98220.81;5094617;28;19920;-82
2024/02/28 08:44:54;;;;;;;;;;;;;;;30.14;22.87;98227.13;5095196;28;19927;-81
2024/02/28 08:47:23;;;;;;;;;;;;;;;30.56;22.82;98219.56;5094723;28;19927;-82
2024/02/28 08:49:50;;;;;;;;;;;;;;;30.91;22.76;98219.97;5094876;28;20441;-81
2024/02/28 08:52:16;;;;;;;;;;;;;;;31.27;21.99;98230.38;5094776;28;19923;-82
2024/02/28 08:54:42;;;;;;;;;;;;;;;31.24;21.74;98229.28;5094104;28;19923;-82
2024/02/28 08:57:08;;;;;;;;;;;;;;;30.74;23.46;98233.69;5094396;28;20048;-81
2024/02/28 08:59:34;;;;;;;;;;;;;;;30.36;23.23;98232.66;5094022;28;20513;-82
2024/02/28 09:02:00;;;;;;;;;;;;;;;30.68;22.74;98227.09;5094397;28;20038;-82
2024/02/28 09:04:26;;;;;;;;;;;;;;;30.71;22.23;98226.13;5094974;28;20299;-82
2024/02/28 09:06:55;;;;;;;;;;;;;;;30.94;22.11;98224.69;5076795;28;20005;-82
2024/02/28 09:09:21;;;;;;;;;;;;;;;31.14;21.74;98230.59;5092853;28;19930;-81
2024/02/28 09:11:47;;;;;;;;;;;;;;;31.19;22.04;98224.28;5093810;28;19920;-82
2024/02/28 09:14:13;;;;;;;;;;;;;;;31.03;21.57;98224.66;5094182;28;19927;-82
2024/02/28 09:16:39;;;;;;;;;;;;;;;31.04;22.64;98226.22;5093690;28;19927;-82
2024/02/28 09:19:05;;;;;;;;;;;;;;;31.49;21.81;98225.25;5093698;28;19920;-82
2024/02/28 09:21:32;;;;;;;;;;;;;;;31.37;21.45;98235.53;5094857;28;19912;-82
2024/02/28 09:23:58;;;;;;;;;;;;;;;31.40;22.05;98230.94;5093840;28;19920;-82
2024/02/28 09:26:24;;;;;;;;;;;;;;;31.70;21.89;98220.53;5092700;28;19924;-82
2024/02/28 09:28:50;;;;;;;;;;;;;;;31.56;22.28;98236.25;5093748;28;19923;-82
2024/02/28 09:31:17;;;;;;;;;;;;;;;31.72;20.88;98233.00;5094273;28;20007;-82
2024/02/28 09:33:46;;;;;;;;;;;;;;;31.68;21.30;98226.72;5088304;28;19920;-82
2024/02/28 09:36:12;;;;;;;;;;;;;;;31.78;21.70;98230.28;5094306;28;19927;-82
2024/02/28 09:38:38;;;;;;;;;;;;;;;31.71;21.74;98236.31;5100665;28;19919;-82
2024/02/28 09:41:04;;;;;;;;;;;;;;;31.83;21.10;98229.63;5090769;28;19928;-82
2024/02/28 09:43:31;;;;;;;;;;;;;;;31.92;21.30;98232.41;5093894;28;20459;-82
2024/02/28 09:46:04;;;;;;;;;;;;;;;31.79;21.35;98226.94;5096069;28;19939;-82
2024/02/28 09:48:30;;;;;;;;;;;;;;;31.74;21.01;98227.63;5113582;28;19955;-82
2024/02/28 09:50:57;;;;;;;;;;;;;;;31.60;21.30;98228.31;5097804;28;20351;-82
2024/02/28 09:53:23;;;;;;;;;;;;;;;31.46;21.58;98231.13;5097442;28;20018;-83
2024/02/28 09:55:50;;;;;;;;;;;;;;;30.93;21.73;98233.66;5108481;28;19956;-82
2024/02/28 09:58:17;;;;;;;;;;;;;;;31.11;22.11;98239.28;5096658;28;19971;-82
2024/02/28 10:00:44;;;;;;;;;;;;;;;31.08;21.57;98240.22;5094185;28;19961;-82
2024/02/28 10:03:14;;;;;;;;;;;;;;;31.12;21.85;98243.69;5094087;28;19916;-82
2024/02/28 10:05:40;;;;;;;;;;;;;;;31.50;21.98;98248.75;5103674;28;20384;-82
2024/02/28 10:08:06;;;;;;;;;;;;;;;31.86;22.54;98254.19;5104236;28;19966;-82
2024/02/28 10:10:32;;;;;;;;;;;;;;;32.36;21.31;98246.75;5102109;28;20442;-82
2024/02/28 10:13:01;;;;;;;;;;;;;;;32.52;21.35;98241.41;5112131;28;19919;-82
2024/02/28 10:15:27;;;;;;;;;;;;;;;32.61;20.74;98249.88;5108485;28;19920;-82
2024/02/28 10:17:53;;;;;;;;;;;;;;;32.45;20.87;98250.31;5102739;28;19926;-82
2024/02/28 10:20:19;;;;;;;;;;;;;;;32.44;21.29;98250.81;5097574;28;19974;-82
2024/02/28 10:22:45;;;;;;;;;;;;;;;32.59;20.74;98255.25;5104607;28;20375;-80
2024/02/28 10:25:11;;;;;;;;;;;;;;;32.91;21.15;98256.34;5090558;28;19963;-80
2024/02/28 10:27:37;;;;;;;;;;;;;;;32.95;20.33;98250.47;5112123;28;20010;-81
2024/02/28 10:30:07;;;;;;;;;;;;;;;32.61;21.14;98247.00;5070495;28;19974;-82
2024/02/28 10:32:35;;;;;;;;;;;;;;;32.56;20.98;98253.38;5104578;28;20276;-80
2024/02/28 10:35:01;;;;;;;;;;;;;;;32.99;20.30;98254.69;5099260;28;20401;-80
2024/02/28 10:37:32;;;;;;;;;;;;;;;33.30;20.99;98249.25;5102991;28;20042;-80
2024/02/28 10:39:58;;;;;;;;;;;;;;;33.59;20.68;98250.50;5091077;28;19916;-80
2024/02/28 10:42:29;;;;;;;;;;;;;;;33.81;21.02;98262.22;5093161;28;19927;-80
2024/02/28 10:44:58;;;;;;;;;;;;;;;33.92;20.60;98256.69;5093474;28;19916;-80
2024/02/28 10:47:25;;;;;;;;;;;;;;;34.01;21.13;98251.63;5092082;28;19923;-80
2024/02/28 10:49:51;;;;;;;;;;;;;;;34.01;20.17;98245.13;5093888;28;19920;-80
2024/02/28 10:52:19;;;;;;;;;;;;;;;34.09;20.49;98254.88;5090353;28;20299;-80
2024/02/28 10:54:46;;;;;;;;;;;;;;;34.01;19.49;98243.09;5081738;28;19927;-80
2024/02/28 10:57:14;;;;;;;;;;;;;;;34.06;20.18;98247.31;5074930;28;19934;-80
2024/02/28 10:59:43;;;;;;;;;;;;;;;34.17;19.46;98249.53;5092508;28;19920;-80
2024/02/28 11:02:09;;;;;;;;;;;;;;;34.09;19.22;98249.16;5092186;28;19920;-81
2024/02/28 11:04:35;;;;;;;;;;;;;;;34.04;19.40;98249.88;5090606;28;19928;-80
2024/02/28 11:07:02;;;;;;;;;;;;;;;34.02;19.72;98255.28;5091736;28;20298;-80
2024/02/28 11:09:30;;;;;;;;;;;;;;;33.87;19.49;98257.38;5093029;28;19968;-81
2024/02/28 11:11:56;;;;;;;;;;;;;;;34.05;20.43;98254.31;5093310;28;20426;-80
2024/02/28 11:14:24;;;;;;;;;;;;;;;34.20;19.49;98255.00;5092753;28;19920;-80
2024/02/28 11:17:03;;;;;;;;;;;;;;;34.29;20.06;98254.06;5092761;28;19974;-81
2024/02/28 11:19:31;;;;;;;;;;;;;;;34.26;19.77;98255.84;5092006;28;19946;-80
2024/02/28 11:21:58;;;;;;;;;;;;;;;34.34;19.98;98254.13;5091726;28;19942;-81
2024/02/28 11:24:27;;;;;;;;;;;;;;;34.41;19.84;98250.06;5091749;28;19962;-80
2024/02/28 11:26:53;;;;;;;;;;;;;;;34.30;20.23;98247.88;5091729;28;20023;-81
2024/02/28 11:29:26;;;;;;;;;;;;;;;34.30;20.25;98256.44;5092454;28;20368;-81
2024/02/28 11:31:53;;;;;;;;;;;;;;;34.37;20.01;98249.50;5091450;28;19916;-81
2024/02/28 11:34:19;;;;;;;;;;;;;;;34.41;19.60;98261.47;5090541;28;19973;-81
2024/02/28 11:36:49;;;;;;;;;;;;;;;34.25;19.10;98251.44;5091960;28;19936;-81
2024/02/28 11:39:15;;;;;;;;;;;;;;;33.78;19.72;98261.16;5093828;28;19935;-80
2024/02/28 11:41:42;;;;;;;;;;;;;;;33.27;19.97;98253.13;5094732;28;19920;-81
2024/02/28 11:44:09;;;;;;;;;;;;;;;33.37;20.53;98263.09;5094309;28;19920;-81
2024/02/28 11:46:35;;;;;;;;;;;;;;;33.48;21.03;98256.00;5093600;28;19927;-81
2024/02/28 11:49:01;;;;;;;;;;;;;;;33.87;20.48;98257.38;5095589;28;20011;-81
2024/02/28 11:51:27;;;;;;;;;;;;;;;34.25;20.14;98251.44;5096607;28;19959;-81
2024/02/28 11:53:53;;;;;;;;;;;;;;;34.51;19.73;98251.47;5096519;28;20380;-81
2024/02/28 11:56:21;;;;;;;;;;;;;;;34.64;19.19;98246.19;5096277;28;20334;-81
2024/02/28 11:58:51;;;;;;;;;;;;;;;34.16;20.39;98247.94;5095556;28;20398;-81
2024/02/28 12:01:16;;;;;;;;;;;;;;;34.30;19.44;98247.88;5090101;28;19920;-81
2024/02/28 12:03:48;;;;;;;;;;;;;;;34.32;19.95;98248.16;5096029;28;19973;-81
2024/02/28 12:06:14;;;;;;;;;;;;;;;34.51;19.38;98251.47;5095399;28;19939;-81
2024/02/28 12:08:40;;;;;;;;;;;;;;;34.37;19.55;98249.50;5077468;28;19998;-81
2024/02/28 12:11:08;;;;;;;;;;;;;;;34.32;19.94;98244.50;5094518;28;19955;-81
2024/02/28 12:13:34;;;;;;;;;;;;;;;34.45;20.33;98251.41;5095536;28;19920;-81
2024/02/28 12:16:00;;;;;;;;;;;;;;;34.68;20.13;98243.91;5096233;28;19923;-81
2024/02/28 12:18:28;;;;;;;;;;;;;;;34.79;20.39;98243.25;5095455;28;20010;-81
2024/02/28 12:20:54;;;;;;;;;;;;;;;34.87;19.91;98250.06;5091480;28;20272;-81
2024/02/28 12:23:20;;;;;;;;;;;;;;;34.97;18.54;98245.72;5095000;28;19982;-81
2024/02/28 12:25:46;;;;;;;;;;;;;;;35.01;18.79;98249.16;5095394;28;19924;-81
2024/02/28 12:28:13;;;;;;;;;;;;;;;35.07;18.57;98247.16;5094719;28;19927;-81
2024/02/28 12:30:40;;;;;;;;;;;;;;;35.12;17.96;98249.28;5092704;28;19916;-80
2024/02/28 12:33:06;;;;;;;;;;;;;;;34.97;17.43;98257.16;5094595;28;19920;-80
2024/02/28 12:35:32;;;;;;;;;;;;;;;34.70;17.77;98252.75;5094834;28;19926;-81
2024/02/28 12:37:58;;;;;;;;;;;;;;;34.74;18.29;98241.91;5093867;28;20371;-81
2024/02/28 12:40:25;;;;;;;;;;;;;;;34.85;18.08;98244.84;5082694;28;19920;-81
2024/02/28 12:42:51;;;;;;;;;;;;;;;34.90;19.20;98249.03;5094702;28;20376;-81
2024/02/28 12:45:17;;;;;;;;;;;;;;;35.01;18.92;98252.03;5095288;28;19920;-81
2024/02/28 12:47:43;;;;;;;;;;;;;;;35.06;18.69;98248.44;5078197;28;19920;-81